Time;durP1;ratioP1;P1;durP2;ratioP2;P2;SDS_P1;SDS_P2;PMS_P1;PMS_P2;Temp;Humidity;BMP_temperature;BMP_pressure;BME280_temperature;BME280_humidity;BME280_pressure;Samples;Min_cycle;Max_cycle;Signal;HPM_P1;HPM_P2
2023/10/02 00:01:18;;;;;;;245.83;92.83;;;;;;;;;;4956298;28;20414;-47
2023/10/02 00:03:48;;;;;;;241.97;86.43;;;;;;;;;;4955910;28;20479;-47
2023/10/02 00:06:16;;;;;;;241.27;86.33;;;;;;;;;;4956006;28;20423;-47
2023/10/02 00:08:42;;;;;;;245.07;89.53;;;;;;;;;;4956022;28;20497;-46
2023/10/02 00:11:36;;;;;;;241.50;86.67;;;;;;;;;;4955984;28;20495;-47
2023/10/02 00:14:23;;;;;;;242.87;89.60;;;;;;;;;;4955667;28;20858;-46
2023/10/02 00:16:59;;;;;;;245.27;91.47;;;;;;;;;;4955544;28;20410;-47
2023/10/02 00:19:35;;;;;;;244.67;90.33;;;;;;;;;;4963481;28;20425;-47
2023/10/02 00:22:08;;;;;;;242.53;90.90;;;;;;;;;;4955618;28;20469;-47
2023/10/02 00:24:41;;;;;;;241.80;88.27;;;;;;;;;;4956010;28;20799;-47
2023/10/02 00:27:08;;;;;;;243.67;89.70;;;;;;;;;;4954340;28;20413;-47
2023/10/02 00:29:35;;;;;;;248.63;93.83;;;;;;;;;;4955635;28;20418;-47
2023/10/02 00:32:10;;;;;;;243.87;88.83;;;;;;;;;;4955642;29;20427;-47
2023/10/02 00:34:38;;;;;;;244.67;90.30;;;;;;;;;;4955495;28;20792;-47
2023/10/02 00:37:05;;;;;;;246.17;93.87;;;;;;;;;;4955499;28;20419;-47
2023/10/02 00:39:32;;;;;;;247.87;93.73;;;;;;;;;;4955429;28;20462;-47
2023/10/02 00:44:51;;;;;;;244.80;88.97;;;;;;;;;;4965175;28;20449;-46
2023/10/02 00:47:35;;;;;;;246.67;92.40;;;;;;;;;;4961777;28;20807;-46
2023/10/02 00:50:08;;;;;;;245.03;88.70;;;;;;;;;;4969756;28;20410;-47
2023/10/02 00:52:35;;;;;;;247.97;94.47;;;;;;;;;;4957166;28;20502;-47
2023/10/02 00:55:05;;;;;;;246.00;89.20;;;;;;;;;;4974533;28;20787;-46
2023/10/02 00:57:35;;;;;;;246.80;91.60;;;;;;;;;;4955368;28;20426;-47
2023/10/02 01:00:05;;;;;;;245.50;92.63;;;;;;;;;;4969687;28;20795;-47
2023/10/02 01:02:34;;;;;;;243.83;90.67;;;;;;;;;;4963103;28;20461;-47
2023/10/02 01:05:00;;;;;;;247.33;91.20;;;;;;;;;;4959235;28;20441;-47
2023/10/02 01:07:28;;;;;;;245.53;91.23;;;;;;;;;;4970151;28;20920;-47
2023/10/02 01:10:07;;;;;;;244.13;88.77;;;;;;;;;;4955041;28;20481;-46
2023/10/02 01:12:43;;;;;;;245.10;88.20;;;;;;;;;;4935976;29;20425;-47
2023/10/02 01:15:12;;;;;;;244.13;89.23;;;;;;;;;;4954237;28;20433;-47
2023/10/02 01:17:45;;;;;;;243.47;86.97;;;;;;;;;;4969519;28;20420;-46
2023/10/02 01:23:11;;;;;;;244.97;90.73;;;;;;;;;;4964478;28;20563;-47
2023/10/02 01:25:38;;;;;;;245.07;89.77;;;;;;;;;;4964818;28;20489;-47
2023/10/02 01:28:04;;;;;;;243.03;88.43;;;;;;;;;;4950514;28;20413;-47
2023/10/02 01:30:30;;;;;;;244.53;89.67;;;;;;;;;;4935806;29;20769;-47
2023/10/02 01:33:21;;;;;;;245.40;90.00;;;;;;;;;;4954739;28;20405;-47
2023/10/02 01:35:51;;;;;;;242.90;89.13;;;;;;;;;;4935941;28;20447;-47
2023/10/02 01:38:37;;;;;;;244.17;89.37;;;;;;;;;;4950822;29;20777;-47
2023/10/02 01:41:08;;;;;;;246.33;93.30;;;;;;;;;;4951618;29;20426;-47
2023/10/02 01:43:45;;;;;;;243.13;86.23;;;;;;;;;;4953568;28;20463;-46
2023/10/02 01:46:11;;;;;;;245.73;91.97;;;;;;;;;;4946093;28;20892;-47
2023/10/02 01:48:41;;;;;;;243.90;88.20;;;;;;;;;;4939446;28;20424;-46
2023/10/02 01:51:27;;;;;;;242.73;86.40;;;;;;;;;;4953252;28;20494;-47
2023/10/02 01:53:54;;;;;;;242.53;88.63;;;;;;;;;;4935015;29;20418;-47
2023/10/02 01:56:22;;;;;;;243.43;86.87;;;;;;;;;;4954144;29;20414;-47
2023/10/02 01:58:50;;;;;;;244.07;89.17;;;;;;;;;;4938707;28;20405;-47
2023/10/02 02:01:16;;;;;;;245.07;90.60;;;;;;;;;;4946517;29;20517;-47
2023/10/02 02:03:46;;;;;;;243.17;87.37;;;;;;;;;;4944676;29;20459;-46
2023/10/02 02:06:16;;;;;;;242.17;86.03;;;;;;;;;;4939220;29;20949;-46
2023/10/02 02:08:49;;;;;;;244.50;89.23;;;;;;;;;;4953188;28;20407;-47
2023/10/02 02:11:21;;;;;;;244.07;89.17;;;;;;;;;;4935015;29;20399;-47
2023/10/02 02:13:53;;;;;;;243.73;90.43;;;;;;;;;;4952222;28;20449;-47
2023/10/02 02:16:22;;;;;;;243.73;89.43;;;;;;;;;;4939167;28;20418;-47
2023/10/02 02:18:53;;;;;;;245.90;92.57;;;;;;;;;;4944439;29;20421;-46
2023/10/02 02:21:20;;;;;;;244.37;89.23;;;;;;;;;;4945880;28;20443;-46
2023/10/02 02:23:46;;;;;;;244.27;89.93;;;;;;;;;;4938158;28;20422;-47
2023/10/02 02:26:23;;;;;;;244.63;91.63;;;;;;;;;;4953739;28;20827;-46
2023/10/02 02:28:51;;;;;;;246.43;91.90;;;;;;;;;;4934723;29;20399;-46
2023/10/02 02:31:29;;;;;;;243.87;88.47;;;;;;;;;;4951556;28;20452;-46
2023/10/02 02:33:59;;;;;;;244.30;90.27;;;;;;;;;;4938682;28;20444;-47
2023/10/02 02:36:25;;;;;;;246.83;94.07;;;;;;;;;;4945640;29;20435;-46
2023/10/02 02:39:05;;;;;;;244.60;91.80;;;;;;;;;;4946517;28;20503;-47
2023/10/02 02:41:31;;;;;;;242.37;90.63;;;;;;;;;;4950222;29;20884;-46
2023/10/02 02:43:57;;;;;;;245.67;92.50;;;;;;;;;;4952028;28;20440;-47
2023/10/02 02:46:23;;;;;;;243.33;88.73;;;;;;;;;;4934591;29;20914;-46
2023/10/02 02:48:55;;;;;;;246.17;91.77;;;;;;;;;;4950749;29;20819;-47
2023/10/02 02:51:23;;;;;;;243.93;89.67;;;;;;;;;;4940107;28;20429;-47
2023/10/02 02:53:51;;;;;;;242.57;86.60;;;;;;;;;;4943625;28;20433;-46
2023/10/02 02:56:23;;;;;;;243.57;89.77;;;;;;;;;;4947594;28;20414;-47
2023/10/02 02:58:51;;;;;;;241.83;85.73;;;;;;;;;;4937133;29;20416;-47
2023/10/02 03:01:24;;;;;;;239.97;84.97;;;;;;;;;;4953521;28;20400;-46
2023/10/02 03:03:55;;;;;;;245.47;90.67;;;;;;;;;;4953162;28;20440;-47
2023/10/02 03:06:24;;;;;;;242.33;89.13;;;;;;;;;;4936212;29;20437;-46
2023/10/02 03:08:51;;;;;;;245.53;89.93;;;;;;;;;;4946589;29;20409;-47
2023/10/02 03:11:22;;;;;;;243.57;87.07;;;;;;;;;;4944719;28;20407;-46
2023/10/02 03:13:48;;;;;;;242.17;88.93;;;;;;;;;;4939005;28;20514;-46
2023/10/02 03:16:29;;;;;;;246.60;93.37;;;;;;;;;;4951842;28;20412;-47
2023/10/02 03:18:55;;;;;;;248.23;93.77;;;;;;;;;;4934270;29;20405;-47
2023/10/02 03:21:22;;;;;;;244.87;90.77;;;;;;;;;;4952630;29;20414;-47
2023/10/02 03:23:49;;;;;;;242.47;88.90;;;;;;;;;;4937981;28;20431;-47
2023/10/02 03:29:00;;;;;;;242.63;88.97;;;;;;;;;;4947463;28;20465;-46
2023/10/02 03:31:34;;;;;;;247.00;91.00;;;;;;;;;;4943211;29;20413;-46
2023/10/02 03:34:01;;;;;;;244.47;89.73;;;;;;;;;;4954186;28;20905;-47
2023/10/02 03:36:27;;;;;;;246.57;91.27;;;;;;;;;;4937880;29;20445;-46
2023/10/02 03:38:57;;;;;;;246.33;91.27;;;;;;;;;;4955520;28;20416;-46
2023/10/02 03:41:44;;;;;;;245.20;91.53;;;;;;;;;;4956119;28;20412;-47
2023/10/02 03:44:09;;;;;;;244.67;90.37;;;;;;;;;;4942839;29;20898;-47
2023/10/02 03:46:40;;;;;;;246.17;93.33;;;;;;;;;;4946619;29;20428;-46
2023/10/02 03:49:06;;;;;;;242.17;85.40;;;;;;;;;;4950483;28;20410;-47
2023/10/02 03:51:36;;;;;;;244.27;87.47;;;;;;;;;;4939345;29;20926;-47
2023/10/02 03:54:17;;;;;;;242.17;85.30;;;;;;;;;;4956518;28;20808;-46
2023/10/02 03:56:50;;;;;;;246.10;90.57;;;;;;;;;;4937421;29;20839;-46
2023/10/02 03:59:27;;;;;;;246.47;91.80;;;;;;;;;;4938407;29;20501;-47
2023/10/02 04:01:53;;;;;;;244.20;88.03;;;;;;;;;;4951344;28;20454;-47
2023/10/02 04:04:21;;;;;;;245.53;89.43;;;;;;;;;;4946049;28;20440;-47
2023/10/02 04:06:47;;;;;;;244.50;89.30;;;;;;;;;;4943773;29;20759;-47
2023/10/02 04:11:43;;;;;;;244.90;90.77;;;;;;;;;;4937307;29;20416;-46
2023/10/02 04:14:19;;;;;;;246.03;91.10;;;;;;;;;;4955183;28;20428;-47
2023/10/02 04:16:46;;;;;;;245.67;89.23;;;;;;;;;;4940149;28;20434;-46
2023/10/02 04:19:12;;;;;;;243.70;85.70;;;;;;;;;;4949149;29;20474;-47
2023/10/02 04:21:38;;;;;;;244.50;88.90;;;;;;;;;;4947835;28;20418;-46
2023/10/02 04:24:09;;;;;;;244.70;90.97;;;;;;;;;;4940543;29;20490;-46
2023/10/02 04:26:36;;;;;;;247.43;88.73;;;;;;;;;;4954974;28;20975;-46
2023/10/02 04:29:26;;;;;;;242.57;85.10;;;;;;;;;;4936634;29;20432;-46
2023/10/02 04:32:11;;;;;;;245.67;89.83;;;;;;;;;;4945453;28;20515;-47
2023/10/02 04:34:37;;;;;;;241.67;86.57;;;;;;;;;;4952197;28;20436;-46
2023/10/02 04:37:19;;;;;;;243.97;88.33;;;;;;;;;;4955530;28;20451;-47
2023/10/02 04:40:37;;;;;;;245.47;90.20;;;;;;;;;;4955350;28;20954;-47
2023/10/02 04:45:20;;;;;;;243.60;87.43;;;;;;;;;;4955047;28;20504;-46
2023/10/02 04:47:54;;;;;;;248.03;93.83;;;;;;;;;;4955240;28;20432;-46
2023/10/02 04:52:56;;;;;;;244.47;89.03;;;;;;;;;;4955548;29;20502;-46
2023/10/02 04:55:41;;;;;;;242.70;86.50;;;;;;;;;;4954401;28;20498;-47
2023/10/02 05:01:00;;;;;;;245.07;91.53;;;;;;;;;;4955063;28;20836;-46
2023/10/02 05:03:26;;;;;;;246.77;91.53;;;;;;;;;;4951192;28;20865;-46
2023/10/02 05:05:58;;;;;;;242.30;87.00;;;;;;;;;;4954963;29;20423;-46
2023/10/02 05:08:34;;;;;;;242.77;86.30;;;;;;;;;;4947845;29;20421;-46
2023/10/02 05:11:07;;;;;;;245.60;91.17;;;;;;;;;;4955091;28;20449;-45
2023/10/02 05:16:34;;;;;;;242.00;86.80;;;;;;;;;;4947327;29;20488;-46
2023/10/02 05:19:01;;;;;;;246.67;90.40;;;;;;;;;;4955118;28;20427;-46
2023/10/02 05:21:38;;;;;;;241.90;87.20;;;;;;;;;;4954678;28;20480;-46
2023/10/02 05:24:05;;;;;;;245.47;89.00;;;;;;;;;;4954274;28;20422;-46
2023/10/02 05:26:38;;;;;;;240.67;83.87;;;;;;;;;;4954771;28;20479;-47
2023/10/02 05:29:05;;;;;;;243.47;86.93;;;;;;;;;;4954652;28;20400;-46
2023/10/02 05:31:35;;;;;;;244.47;89.30;;;;;;;;;;4954452;28;20825;-46
2023/10/02 05:34:06;;;;;;;245.57;90.73;;;;;;;;;;4954455;28;20461;-46
2023/10/02 05:36:32;;;;;;;243.77;88.37;;;;;;;;;;4954547;28;20471;-46
2023/10/02 05:39:28;;;;;;;245.23;90.07;;;;;;;;;;4954375;28;20503;-46
2023/10/02 05:42:05;;;;;;;244.13;89.07;;;;;;;;;;4954035;28;20519;-46
2023/10/02 05:44:31;;;;;;;244.57;89.07;;;;;;;;;;4953902;28;20447;-46
2023/10/02 05:47:07;;;;;;;242.03;85.87;;;;;;;;;;4954218;28;20431;-46
2023/10/02 05:49:36;;;;;;;243.80;86.67;;;;;;;;;;4954222;28;20928;-46
2023/10/02 05:52:02;;;;;;;244.20;89.30;;;;;;;;;;4953862;28;20416;-47
2023/10/02 05:54:29;;;;;;;241.30;87.90;;;;;;;;;;4953835;28;20436;-46
2023/10/02 05:57:14;;;;;;;242.67;88.73;;;;;;;;;;4954109;28;20418;-47
2023/10/02 05:59:44;;;;;;;243.80;90.13;;;;;;;;;;4954044;28;20479;-46
2023/10/02 06:02:19;;;;;;;240.17;86.17;;;;;;;;;;4953933;28;20472;-46
2023/10/02 06:04:48;;;;;;;246.53;91.97;;;;;;;;;;4953582;28;20846;-46
2023/10/02 06:10:07;;;;;;;244.27;91.73;;;;;;;;;;4954075;29;20457;-46
2023/10/02 06:12:33;;;;;;;241.97;86.53;;;;;;;;;;4954021;28;20923;-46
2023/10/02 06:15:08;;;;;;;239.97;87.77;;;;;;;;;;4953487;28;20468;-46
2023/10/02 06:17:35;;;;;;;245.43;92.03;;;;;;;;;;4953933;28;20892;-46
2023/10/02 06:20:01;;;;;;;244.97;91.03;;;;;;;;;;4953624;28;20426;-46
2023/10/02 06:22:27;;;;;;;248.77;94.63;;;;;;;;;;4953770;28;20460;-47
2023/10/02 06:24:52;;;;;;;246.03;92.97;;;;;;;;;;4953442;28;20440;-46
2023/10/02 06:27:22;;;;;;;242.67;88.33;;;;;;;;;;4953984;28;20406;-46
2023/10/02 06:29:50;;;;;;;244.83;89.03;;;;;;;;;;4950244;28;20417;-47
2023/10/02 06:32:23;;;;;;;252.40;93.10;;;;;;;;;;4952360;28;20420;-46
2023/10/02 06:34:57;;;;;;;243.73;90.07;;;;;;;;;;4952356;28;20948;-46
2023/10/02 06:37:35;;;;;;;242.73;88.70;;;;;;;;;;4948061;29;20460;-47
2023/10/02 06:40:14;;;;;;;242.10;88.37;;;;;;;;;;4953586;28;20425;-46
2023/10/02 06:42:48;;;;;;;244.80;90.93;;;;;;;;;;4953255;28;20504;-46
2023/10/02 06:45:15;;;;;;;242.30;89.20;;;;;;;;;;4952576;28;20426;-46
2023/10/02 06:47:42;;;;;;;243.03;89.60;;;;;;;;;;4953308;28;20444;-47
2023/10/02 06:52:54;;;;;;;247.57;93.27;;;;;;;;;;4953246;28;20445;-46
2023/10/02 06:55:24;;;;;;;244.97;90.67;;;;;;;;;;4953253;28;20439;-46
2023/10/02 06:57:52;;;;;;;242.80;89.93;;;;;;;;;;4953520;29;20413;-46
2023/10/02 07:00:19;;;;;;;242.97;89.67;;;;;;;;;;4953456;28;20452;-46
2023/10/02 07:02:56;;;;;;;246.67;92.33;;;;;;;;;;4954444;28;20474;-46
2023/10/02 07:05:27;;;;;;;248.77;97.53;;;;;;;;;;4952702;28;20437;-47
2023/10/02 07:07:59;;;;;;;248.93;96.23;;;;;;;;;;4957242;28;20411;-46
2023/10/02 07:10:25;;;;;;;248.83;94.27;;;;;;;;;;4950218;28;20411;-47
2023/10/02 07:12:50;;;;;;;244.10;91.17;;;;;;;;;;4957161;28;20426;-47
2023/10/02 07:15:22;;;;;;;247.60;96.17;;;;;;;;;;4956703;28;20435;-46
2023/10/02 07:17:48;;;;;;;249.20;94.20;;;;;;;;;;4956891;28;20408;-47
2023/10/02 07:20:15;;;;;;;249.47;99.33;;;;;;;;;;4956912;28;20897;-47
2023/10/02 07:22:43;;;;;;;251.30;101.20;;;;;;;;;;4956782;28;20553;-47
2023/10/02 07:25:09;;;;;;;250.27;98.97;;;;;;;;;;4956875;28;20477;-47
2023/10/02 07:27:37;;;;;;;252.83;103.07;;;;;;;;;;4956682;28;20929;-47
2023/10/02 07:30:04;;;;;;;252.97;103.13;;;;;;;;;;4956778;28;20411;-46
2023/10/02 07:32:32;;;;;;;251.90;104.67;;;;;;;;;;4956737;29;20421;-47
2023/10/02 07:35:19;;;;;;;251.47;105.43;;;;;;;;;;4956427;28;20477;-47
2023/10/02 07:37:57;;;;;;;250.30;102.80;;;;;;;;;;4956742;28;20421;-47
2023/10/02 07:40:23;;;;;;;255.83;108.47;;;;;;;;;;4949349;29;20432;-47
2023/10/02 07:42:52;;;;;;;253.87;107.83;;;;;;;;;;4956407;28;20453;-47
2023/10/02 07:45:30;;;;;;;250.37;104.30;;;;;;;;;;4956135;28;20464;-47
2023/10/02 07:48:08;;;;;;;253.50;110.63;;;;;;;;;;4956401;28;20433;-47
2023/10/02 07:50:44;;;;;;;250.50;105.03;;;;;;;;;;4956495;28;20460;-47
2023/10/02 07:53:10;;;;;;;251.93;106.50;;;;;;;;;;4956185;28;20983;-47
2023/10/02 07:55:40;;;;;;;248.47;101.70;;;;;;;;;;4956095;28;20933;-47
2023/10/02 07:58:08;;;;;;;249.83;102.47;;;;;;;;;;4956302;28;20523;-47
2023/10/02 08:00:37;;;;;;;256.83;110.43;;;;;;;;;;4954621;28;20940;-47
2023/10/02 08:03:04;;;;;;;248.60;101.90;;;;;;;;;;4956420;28;20453;-46
2023/10/02 08:05:38;;;;;;;249.90;104.17;;;;;;;;;;4955935;28;20441;-47
2023/10/02 08:08:10;;;;;;;248.57;101.70;;;;;;;;;;4956022;28;20901;-47
2023/10/02 08:10:49;;;;;;;252.77;107.27;;;;;;;;;;4955945;28;20440;-47
2023/10/02 08:13:17;;;;;;;253.67;107.13;;;;;;;;;;4955002;28;20929;-47
2023/10/02 08:15:47;;;;;;;249.63;103.37;;;;;;;;;;4955917;28;20468;-47
2023/10/02 08:18:19;;;;;;;249.70;105.13;;;;;;;;;;4955828;28;20439;-47
2023/10/02 08:20:45;;;;;;;248.53;102.87;;;;;;;;;;4955791;28;20420;-47
2023/10/02 08:23:21;;;;;;;255.67;109.87;;;;;;;;;;4955636;28;20461;-47
2023/10/02 08:26:00;;;;;;;252.73;106.30;;;;;;;;;;4955543;29;20419;-46
2023/10/02 08:28:26;;;;;;;256.23;109.63;;;;;;;;;;4949628;28;20472;-47
2023/10/02 08:30:59;;;;;;;248.97;101.33;;;;;;;;;;4971989;28;20417;-47
2023/10/02 08:33:26;;;;;;;251.83;104.73;;;;;;;;;;4955421;28;20406;-46
2023/10/02 08:35:52;;;;;;;249.47;102.47;;;;;;;;;;4974604;28;20409;-47
2023/10/02 08:38:26;;;;;;;253.27;108.10;;;;;;;;;;4959814;28;20448;-47
2023/10/02 08:41:03;;;;;;;253.57;108.77;;;;;;;;;;4967732;28;20405;-47
2023/10/02 08:43:29;;;;;;;258.43;109.57;;;;;;;;;;4964855;28;20460;-47
2023/10/02 08:45:58;;;;;;;250.73;102.27;;;;;;;;;;4961322;28;20413;-47
2023/10/02 08:48:25;;;;;;;250.47;105.47;;;;;;;;;;4972480;28;20464;-47
2023/10/02 08:50:57;;;;;;;259.83;114.20;;;;;;;;;;4955236;28;20490;-47
2023/10/02 08:53:23;;;;;;;263.03;116.13;;;;;;;;;;4955414;28;20452;-47
2023/10/02 08:56:21;;;;;;;253.40;112.00;;;;;;;;;;4969843;28;20418;-47
2023/10/02 08:59:14;;;;;;;254.20;112.93;;;;;;;;;;4956124;28;20924;-47
2023/10/02 09:01:34;;;;;;;254.20;114.97;;;;;;;;;;4968268;28;20421;-47
2023/10/02 09:04:22;;;;;;;255.13;120.80;;;;;;;;;;4964471;28;20454;-48
2023/10/02 09:06:49;;;;;;;256.73;122.37;;;;;;;;;;4963484;28;20592;-48
2023/10/02 09:11:57;;;;;;;256.70;130.03;;;;;;;;;;4954544;28;20493;-47
2023/10/02 09:14:39;;;;;;;259.47;136.73;;;;;;;;;;4954722;28;20441;-48
2023/10/02 09:19:49;;;;;;;258.27;139.20;;;;;;;;;;4953724;29;20429;-48
2023/10/02 09:22:16;;;;;;;260.30;142.00;;;;;;;;;;4940016;28;20462;-47
2023/10/02 09:24:55;;;;;;;257.63;144.03;;;;;;;;;;4944982;28;20438;-48
2023/10/02 09:27:26;;;;;;;255.10;139.00;;;;;;;;;;4946078;28;20537;-48
2023/10/02 09:32:47;;;;;;;256.10;142.77;;;;;;;;;;4950835;29;20417;-48
2023/10/02 09:35:29;;;;;;;256.83;141.23;;;;;;;;;;4936446;29;20425;-48
2023/10/02 09:37:56;;;;;;;256.00;142.13;;;;;;;;;;4954681;28;20386;-48
2023/10/02 09:40:29;;;;;;;256.87;144.23;;;;;;;;;;4942884;29;20413;-48
2023/10/02 09:43:10;;;;;;;256.90;148.10;;;;;;;;;;4953858;28;20462;-48
2023/10/02 09:45:39;;;;;;;258.43;149.73;;;;;;;;;;4940429;28;20862;-48
2023/10/02 09:48:06;;;;;;;258.57;151.83;;;;;;;;;;4945331;29;20753;-48
2023/10/02 09:50:34;;;;;;;258.60;152.90;;;;;;;;;;4947983;28;20415;-48
2023/10/02 09:53:08;;;;;;;257.43;153.67;;;;;;;;;;4937770;29;20781;-48
2023/10/02 09:55:47;;;;;;;256.40;152.50;;;;;;;;;;4954032;28;20430;-48
2023/10/02 09:58:38;;;;;;;255.97;149.47;;;;;;;;;;4935233;29;20495;-48
2023/10/02 10:03:56;;;;;;;256.90;156.97;;;;;;;;;;4953642;28;20451;-48
2023/10/02 10:06:29;;;;;;;257.73;155.40;;;;;;;;;;4938398;28;20790;-48
2023/10/02 10:11:43;;;;;;;256.40;157.63;;;;;;;;;;4942808;29;20442;-48
2023/10/02 10:14:42;;;;;;;256.17;155.23;;;;;;;;;;4941925;28;20485;-48
2023/10/02 10:17:17;;;;;;;257.30;158.80;;;;;;;;;;4931075;29;20418;-48
2023/10/02 10:20:08;;;;;;;258.63;162.40;;;;;;;;;;4940008;29;20411;-48
2023/10/02 10:22:50;;;;;;;254.87;156.70;;;;;;;;;;4949184;28;20458;-48
2023/10/02 10:25:22;;;;;;;263.00;165.20;;;;;;;;;;4936055;29;20450;-48
2023/10/02 10:27:58;;;;;;;261.03;164.10;;;;;;;;;;4954012;28;20488;-48
2023/10/02 10:30:28;;;;;;;258.47;161.73;;;;;;;;;;4934736;29;20406;-48
2023/10/02 10:33:01;;;;;;;257.47;161.53;;;;;;;;;;4935010;29;20425;-48
2023/10/02 10:35:33;;;;;;;259.87;161.63;;;;;;;;;;4947956;29;20412;-48
2023/10/02 10:38:01;;;;;;;256.77;156.97;;;;;;;;;;4943104;28;20418;-48
2023/10/02 10:40:43;;;;;;;255.63;156.70;;;;;;;;;;4941768;29;20417;-48
2023/10/02 10:43:12;;;;;;;260.80;162.57;;;;;;;;;;4948381;28;20529;-48
2023/10/02 10:45:40;;;;;;;259.03;162.87;;;;;;;;;;4935706;29;20449;-48
2023/10/02 10:48:18;;;;;;;261.10;166.03;;;;;;;;;;4953639;28;20428;-48
2023/10/02 10:50:57;;;;;;;257.87;164.80;;;;;;;;;;4935057;28;20410;-48
2023/10/02 10:53:41;;;;;;;262.43;166.53;;;;;;;;;;4950159;28;20496;-48
2023/10/02 10:56:19;;;;;;;257.90;166.87;;;;;;;;;;4938959;28;20410;-48
2023/10/02 10:58:52;;;;;;;259.40;165.77;;;;;;;;;;4946744;29;20384;-48
2023/10/02 11:01:20;;;;;;;257.43;164.83;;;;;;;;;;4944147;28;20421;-48
2023/10/02 11:03:54;;;;;;;259.67;166.00;;;;;;;;;;4939334;28;20469;-48
2023/10/02 11:06:24;;;;;;;258.63;166.93;;;;;;;;;;4950734;28;20455;-48
2023/10/02 11:09:12;;;;;;;259.57;166.00;;;;;;;;;;4934436;29;20808;-48
2023/10/02 11:11:50;;;;;;;256.43;163.60;;;;;;;;;;4934308;29;20413;-48
2023/10/02 11:14:22;;;;;;;259.47;165.80;;;;;;;;;;4952830;28;20408;-47
2023/10/02 11:16:52;;;;;;;261.43;173.43;;;;;;;;;;4937528;28;20743;-48
2023/10/02 11:22:01;;;;;;;257.10;164.13;;;;;;;;;;4944620;28;20433;-48
2023/10/02 11:24:28;;;;;;;261.67;165.93;;;;;;;;;;4940287;28;20434;-47
2023/10/02 11:27:04;;;;;;;259.10;166.73;;;;;;;;;;4951085;28;20425;-48
2023/10/02 11:29:42;;;;;;;260.63;172.90;;;;;;;;;;4935042;29;20421;-48
2023/10/02 11:32:22;;;;;;;257.50;169.33;;;;;;;;;;4952172;29;20783;-48
2023/10/02 11:35:03;;;;;;;261.73;176.43;;;;;;;;;;4934035;28;20444;-48
2023/10/02 11:37:29;;;;;;;258.83;171.00;;;;;;;;;;4951061;29;20460;-48
2023/10/02 11:39:56;;;;;;;259.97;170.97;;;;;;;;;;4943512;28;20410;-48
2023/10/02 11:42:23;;;;;;;259.37;171.10;;;;;;;;;;4952674;28;20461;-47
2023/10/02 11:44:49;;;;;;;261.20;174.13;;;;;;;;;;4947511;28;20417;-48
2023/10/02 11:47:15;;;;;;;263.47;175.83;;;;;;;;;;4935074;29;20393;-48
2023/10/02 11:49:42;;;;;;;260.37;172.43;;;;;;;;;;4955548;28;20899;-47
2023/10/02 11:52:08;;;;;;;262.17;174.20;;;;;;;;;;4939739;28;20474;-48
2023/10/02 11:54:39;;;;;;;264.03;174.10;;;;;;;;;;4950006;28;20434;-48
2023/10/02 11:57:08;;;;;;;262.53;172.73;;;;;;;;;;4946842;28;20442;-48
2023/10/02 11:59:38;;;;;;;263.63;169.13;;;;;;;;;;4943120;29;20418;-47
2023/10/02 12:02:04;;;;;;;266.17;170.33;;;;;;;;;;4953593;28;20500;-47
2023/10/02 12:04:31;;;;;;;258.60;151.87;;;;;;;;;;4937037;29;20431;-47
2023/10/02 12:06:58;;;;;;;260.33;156.47;;;;;;;;;;4955251;28;20384;-48
2023/10/02 12:09:25;;;;;;;259.50;154.07;;;;;;;;;;4941033;29;20881;-47
2023/10/02 12:11:51;;;;;;;259.40;151.63;;;;;;;;;;4947539;29;20554;-47
2023/10/02 12:14:18;;;;;;;261.00;152.27;;;;;;;;;;4949366;28;20827;-47
2023/10/02 12:16:44;;;;;;;258.27;151.90;;;;;;;;;;4939612;29;20527;-48
2023/10/02 12:19:10;;;;;;;256.13;146.53;;;;;;;;;;4956255;28;20478;-48
2023/10/02 12:21:37;;;;;;;256.70;152.67;;;;;;;;;;4937978;28;20422;-48
2023/10/02 12:24:05;;;;;;;259.60;157.07;;;;;;;;;;4950462;28;20985;-48
2023/10/02 12:26:32;;;;;;;258.80;157.07;;;;;;;;;;4945583;28;20407;-48
2023/10/02 12:29:00;;;;;;;259.83;158.27;;;;;;;;;;4943138;28;20446;-48
2023/10/02 12:31:26;;;;;;;255.43;152.97;;;;;;;;;;4953074;28;20410;-48
2023/10/02 12:33:55;;;;;;;260.80;164.30;;;;;;;;;;4954667;28;20441;-47
2023/10/02 12:36:22;;;;;;;257.97;155.03;;;;;;;;;;4937133;28;20442;-47
2023/10/02 12:38:50;;;;;;;259.20;155.60;;;;;;;;;;4951752;29;20414;-48
2023/10/02 12:41:20;;;;;;;256.67;152.50;;;;;;;;;;4955013;28;20413;-48
2023/10/02 12:43:47;;;;;;;258.53;155.20;;;;;;;;;;4947570;28;20484;-48
2023/10/02 12:46:17;;;;;;;256.33;153.90;;;;;;;;;;4940106;29;20413;-48
2023/10/02 12:48:46;;;;;;;259.63;158.47;;;;;;;;;;4955182;28;20413;-48
2023/10/02 12:51:13;;;;;;;256.73;157.97;;;;;;;;;;4936398;29;20478;-47
2023/10/02 12:53:40;;;;;;;257.53;152.23;;;;;;;;;;4952178;28;20878;-48
2023/10/02 12:56:06;;;;;;;259.33;158.93;;;;;;;;;;4941711;28;21014;-48
2023/10/02 12:58:35;;;;;;;257.47;154.13;;;;;;;;;;4944666;29;20413;-48
2023/10/02 13:01:01;;;;;;;260.73;155.03;;;;;;;;;;4949116;28;20419;-48
2023/10/02 13:03:32;;;;;;;269.10;161.87;;;;;;;;;;4936539;28;20466;-48
2023/10/02 13:06:03;;;;;;;259.10;152.83;;;;;;;;;;4955399;28;20417;-48
2023/10/02 13:08:29;;;;;;;260.33;155.40;;;;;;;;;;4937401;28;20462;-48
2023/10/02 13:10:55;;;;;;;259.17;151.27;;;;;;;;;;4949613;28;20458;-48
2023/10/02 13:13:22;;;;;;;261.10;150.13;;;;;;;;;;4945287;28;20426;-47
2023/10/02 13:15:48;;;;;;;258.70;148.17;;;;;;;;;;4941826;29;20445;-48
2023/10/02 13:18:15;;;;;;;259.97;149.53;;;;;;;;;;4953138;28;20418;-47
2023/10/02 13:20:43;;;;;;;257.83;146.90;;;;;;;;;;4935728;29;20407;-48
2023/10/02 13:23:09;;;;;;;258.53;153.00;;;;;;;;;;4952844;28;20552;-48
2023/10/02 13:25:35;;;;;;;261.07;155.60;;;;;;;;;;4940103;28;20862;-48
2023/10/02 13:28:01;;;;;;;255.27;145.83;;;;;;;;;;4945643;29;20941;-47
2023/10/02 13:30:30;;;;;;;257.13;152.40;;;;;;;;;;4949212;28;20419;-47
2023/10/02 13:32:56;;;;;;;257.57;148.10;;;;;;;;;;4937625;29;20891;-47
2023/10/02 13:35:23;;;;;;;257.70;148.90;;;;;;;;;;4954537;28;20481;-47
2023/10/02 13:37:50;;;;;;;256.23;144.63;;;;;;;;;;4937121;28;20831;-48
2023/10/02 13:40:26;;;;;;;255.00;143.07;;;;;;;;;;4949119;28;20421;-47
2023/10/02 13:42:53;;;;;;;257.87;149.67;;;;;;;;;;4954316;28;20461;-47
2023/10/02 13:45:19;;;;;;;256.03;149.00;;;;;;;;;;4946676;28;20529;-47
2023/10/02 13:47:49;;;;;;;258.70;148.53;;;;;;;;;;4934544;29;20443;-48
2023/10/02 13:50:15;;;;;;;258.60;145.93;;;;;;;;;;4935386;29;20422;-48
2023/10/02 13:52:43;;;;;;;259.27;148.00;;;;;;;;;;4954464;28;20434;-47
2023/10/02 13:55:26;;;;;;;255.77;142.20;;;;;;;;;;4938737;28;20497;-48
2023/10/02 13:57:54;;;;;;;260.77;148.33;;;;;;;;;;4948929;28;20445;-47
2023/10/02 14:00:20;;;;;;;259.93;147.63;;;;;;;;;;4944272;28;20430;-48
2023/10/02 14:02:51;;;;;;;261.07;149.20;;;;;;;;;;4940860;29;20489;-48
2023/10/02 14:05:18;;;;;;;259.40;141.27;;;;;;;;;;4951260;28;20529;-47
2023/10/02 14:07:44;;;;;;;259.53;146.03;;;;;;;;;;4935583;29;20756;-47
2023/10/02 14:10:12;;;;;;;260.03;147.10;;;;;;;;;;4953006;29;20421;-47
2023/10/02 14:12:42;;;;;;;255.70;135.40;;;;;;;;;;4939171;28;20478;-48
2023/10/02 14:15:08;;;;;;;257.83;138.73;;;;;;;;;;4945540;29;20925;-47
2023/10/02 14:17:36;;;;;;;256.07;134.57;;;;;;;;;;4946967;28;20473;-48
2023/10/02 14:20:04;;;;;;;260.13;142.73;;;;;;;;;;4938103;29;20948;-48
2023/10/02 14:22:33;;;;;;;257.83;139.03;;;;;;;;;;4953646;28;20569;-47
2023/10/02 14:25:00;;;;;;;255.77;137.60;;;;;;;;;;4934612;29;20457;-48
2023/10/02 14:27:26;;;;;;;259.17;143.20;;;;;;;;;;4950244;28;20857;-48
2023/10/02 14:29:53;;;;;;;256.70;137.50;;;;;;;;;;4942148;28;20474;-47
2023/10/02 14:32:19;;;;;;;257.40;135.33;;;;;;;;;;4944382;29;20772;-47
2023/10/02 14:34:45;;;;;;;257.33;135.10;;;;;;;;;;4938350;28;20473;-48
2023/10/02 14:37:11;;;;;;;258.63;145.50;;;;;;;;;;4953698;28;20414;-47
2023/10/02 14:39:39;;;;;;;257.53;136.83;;;;;;;;;;4935810;28;20469;-48
2023/10/02 14:42:06;;;;;;;261.47;143.63;;;;;;;;;;4953158;28;20606;-48
2023/10/02 14:44:32;;;;;;;255.77;139.90;;;;;;;;;;4941787;28;20953;-48
2023/10/02 14:47:00;;;;;;;255.40;134.57;;;;;;;;;;4942039;29;20433;-48
2023/10/02 14:49:26;;;;;;;257.10;141.03;;;;;;;;;;4949474;28;20442;-48
2023/10/02 14:51:51;;;;;;;256.13;134.60;;;;;;;;;;4934580;29;20437;-48
2023/10/02 14:54:17;;;;;;;258.40;142.80;;;;;;;;;;4953214;28;20530;-48
2023/10/02 14:56:44;;;;;;;259.83;144.70;;;;;;;;;;4938341;28;20414;-48
2023/10/02 14:59:10;;;;;;;256.27;139.10;;;;;;;;;;4945597;29;20496;-48
2023/10/02 15:01:36;;;;;;;257.37;141.77;;;;;;;;;;4946032;28;20974;-48
2023/10/02 15:04:02;;;;;;;254.83;131.23;;;;;;;;;;4936976;28;20901;-48